sensor_id;sensor_type;location;lat;lon;timestamp;P1;durP1;ratioP1;P2;durP2;ratioP2
73474;SDS011;61711;52.266;10.542;2023-04-15T00:01:18;7.00;;;4.40;;
73474;SDS011;61711;52.266;10.542;2023-04-15T00:03:44;7.22;;;4.50;;
73474;SDS011;61711;52.266;10.542;2023-04-15T00:06:11;7.35;;;4.75;;
73474;SDS011;61711;52.266;10.542;2023-04-15T00:08:37;7.97;;;4.97;;
73474;SDS011;61711;52.266;10.542;2023-04-15T00:11:03;8.70;;;4.88;;
73474;SDS011;61711;52.266;10.542;2023-04-15T00:13:32;6.85;;;4.95;;
73474;SDS011;61711;52.266;10.542;2023-04-15T00:15:58;8.02;;;5.28;;
73474;SDS011;61711;52.266;10.542;2023-04-15T00:18:25;8.40;;;5.05;;
73474;SDS011;61711;52.266;10.542;2023-04-15T00:20:51;8.35;;;4.90;;
73474;SDS011;61711;52.266;10.542;2023-04-15T00:23:17;8.05;;;4.68;;
73474;SDS011;61711;52.266;10.542;2023-04-15T00:25:43;7.28;;;4.55;;
73474;SDS011;61711;52.266;10.542;2023-04-15T00:28:09;7.65;;;4.63;;
73474;SDS011;61711;52.266;10.542;2023-04-15T00:30:35;7.40;;;4.50;;
73474;SDS011;61711;52.266;10.542;2023-04-15T00:33:02;6.22;;;4.50;;
73474;SDS011;61711;52.266;10.542;2023-04-15T00:35:28;7.68;;;4.97;;
73474;SDS011;61711;52.266;10.542;2023-04-15T00:37:56;7.82;;;4.90;;
73474;SDS011;61711;52.266;10.542;2023-04-15T00:40:22;8.10;;;5.20;;
73474;SDS011;61711;52.266;10.542;2023-04-15T00:42:50;9.15;;;5.30;;
73474;SDS011;61711;52.266;10.542;2023-04-15T00:45:16;9.43;;;5.38;;
73474;SDS011;61711;52.266;10.542;2023-04-15T00:47:43;9.20;;;5.07;;
73474;SDS011;61711;52.266;10.542;2023-04-15T00:50:10;8.93;;;5.18;;
73474;SDS011;61711;52.266;10.542;2023-04-15T00:52:36;8.50;;;5.40;;
73474;SDS011;61711;52.266;10.542;2023-04-15T00:55:03;8.68;;;5.50;;
73474;SDS011;61711;52.266;10.542;2023-04-15T00:57:29;8.32;;;4.95;;
73474;SDS011;61711;52.266;10.542;2023-04-15T00:59:55;10.68;;;5.85;;
73474;SDS011;61711;52.266;10.542;2023-04-15T01:02:22;10.82;;;6.47;;
73474;SDS011;61711;52.266;10.542;2023-04-15T01:04:48;9.70;;;5.47;;
73474;SDS011;61711;52.266;10.542;2023-04-15T01:07:14;9.20;;;5.75;;
73474;SDS011;61711;52.266;10.542;2023-04-15T01:09:41;10.20;;;5.72;;
73474;SDS011;61711;52.266;10.542;2023-04-15T01:12:09;8.90;;;5.32;;
73474;SDS011;61711;52.266;10.542;2023-04-15T01:14:36;11.00;;;5.88;;
73474;SDS011;61711;52.266;10.542;2023-04-15T01:17:02;11.50;;;6.00;;
73474;SDS011;61711;52.266;10.542;2023-04-15T01:19:28;8.98;;;5.50;;
73474;SDS011;61711;52.266;10.542;2023-04-15T01:21:55;9.82;;;5.95;;
73474;SDS011;61711;52.266;10.542;2023-04-15T01:24:21;10.32;;;5.50;;
73474;SDS011;61711;52.266;10.542;2023-04-15T01:26:47;10.60;;;6.35;;
73474;SDS011;61711;52.266;10.542;2023-04-15T01:29:14;10.35;;;6.30;;
73474;SDS011;61711;52.266;10.542;2023-04-15T01:31:40;10.30;;;6.22;;
73474;SDS011;61711;52.266;10.542;2023-04-15T01:34:13;12.32;;;6.68;;
73474;SDS011;61711;52.266;10.542;2023-04-15T01:36:39;12.50;;;6.65;;
73474;SDS011;61711;52.266;10.542;2023-04-15T01:39:05;11.55;;;6.55;;
73474;SDS011;61711;52.266;10.542;2023-04-15T01:41:32;13.45;;;6.80;;
73474;SDS011;61711;52.266;10.542;2023-04-15T01:43:58;12.35;;;6.72;;
73474;SDS011;61711;52.266;10.542;2023-04-15T01:46:24;11.85;;;6.93;;
73474;SDS011;61711;52.266;10.542;2023-04-15T01:48:50;12.68;;;7.28;;
73474;SDS011;61711;52.266;10.542;2023-04-15T01:51:16;13.70;;;7.25;;
73474;SDS011;61711;52.266;10.542;2023-04-15T01:53:42;13.65;;;6.95;;
73474;SDS011;61711;52.266;10.542;2023-04-15T01:56:08;11.48;;;7.20;;
73474;SDS011;61711;52.266;10.542;2023-04-15T01:58:34;12.95;;;7.20;;
73474;SDS011;61711;52.266;10.542;2023-04-15T02:01:01;13.05;;;7.00;;
73474;SDS011;61711;52.266;10.542;2023-04-15T02:03:28;11.98;;;6.85;;
73474;SDS011;61711;52.266;10.542;2023-04-15T02:05:54;15.48;;;7.15;;
73474;SDS011;61711;52.266;10.542;2023-04-15T02:08:20;12.02;;;7.15;;
73474;SDS011;61711;52.266;10.542;2023-04-15T02:10:46;11.70;;;6.18;;
73474;SDS011;61711;52.266;10.542;2023-04-15T02:13:13;12.07;;;6.90;;
73474;SDS011;61711;52.266;10.542;2023-04-15T02:15:39;10.70;;;6.88;;
73474;SDS011;61711;52.266;10.542;2023-04-15T02:18:05;13.23;;;7.13;;
73474;SDS011;61711;52.266;10.542;2023-04-15T02:20:31;12.63;;;6.93;;
73474;SDS011;61711;52.266;10.542;2023-04-15T02:22:58;12.45;;;7.10;;
73474;SDS011;61711;52.266;10.542;2023-04-15T02:25:24;12.45;;;7.22;;
73474;SDS011;61711;52.266;10.542;2023-04-15T02:27:50;12.60;;;6.55;;
73474;SDS011;61711;52.266;10.542;2023-04-15T02:30:17;13.73;;;7.15;;
73474;SDS011;61711;52.266;10.542;2023-04-15T02:32:43;13.05;;;7.22;;
73474;SDS011;61711;52.266;10.542;2023-04-15T02:35:09;12.52;;;7.13;;
73474;SDS011;61711;52.266;10.542;2023-04-15T02:37:36;17.65;;;7.30;;
73474;SDS011;61711;52.266;10.542;2023-04-15T02:40:08;13.73;;;7.18;;
73474;SDS011;61711;52.266;10.542;2023-04-15T02:42:38;12.63;;;7.18;;
73474;SDS011;61711;52.266;10.542;2023-04-15T02:45:04;12.68;;;7.20;;
73474;SDS011;61711;52.266;10.542;2023-04-15T02:47:31;14.25;;;7.57;;
73474;SDS011;61711;52.266;10.542;2023-04-15T02:49:57;13.15;;;7.53;;
73474;SDS011;61711;52.266;10.542;2023-04-15T02:52:24;16.25;;;8.40;;
73474;SDS011;61711;52.266;10.542;2023-04-15T02:54:50;14.27;;;7.30;;
73474;SDS011;61711;52.266;10.542;2023-04-15T02:57:18;18.83;;;8.65;;
73474;SDS011;61711;52.266;10.542;2023-04-15T02:59:44;15.95;;;8.35;;
73474;SDS011;61711;52.266;10.542;2023-04-15T03:02:10;14.73;;;7.53;;
73474;SDS011;61711;52.266;10.542;2023-04-15T03:04:36;16.23;;;8.55;;
73474;SDS011;61711;52.266;10.542;2023-04-15T03:07:03;16.90;;;9.07;;
73474;SDS011;61711;52.266;10.542;2023-04-15T03:09:30;15.70;;;8.75;;
73474;SDS011;61711;52.266;10.542;2023-04-15T03:11:57;18.40;;;8.93;;
73474;SDS011;61711;52.266;10.542;2023-04-15T03:14:23;16.83;;;8.45;;
73474;SDS011;61711;52.266;10.542;2023-04-15T03:16:49;15.45;;;8.05;;
73474;SDS011;61711;52.266;10.542;2023-04-15T03:19:16;16.67;;;8.82;;
73474;SDS011;61711;52.266;10.542;2023-04-15T03:21:42;15.52;;;8.38;;
73474;SDS011;61711;52.266;10.542;2023-04-15T03:24:08;16.83;;;8.65;;
73474;SDS011;61711;52.266;10.542;2023-04-15T03:26:34;17.88;;;8.52;;
73474;SDS011;61711;52.266;10.542;2023-04-15T03:29:00;18.67;;;8.70;;
73474;SDS011;61711;52.266;10.542;2023-04-15T03:31:26;16.02;;;8.32;;
73474;SDS011;61711;52.266;10.542;2023-04-15T03:33:53;19.42;;;9.68;;
73474;SDS011;61711;52.266;10.542;2023-04-15T03:36:19;18.90;;;9.27;;
73474;SDS011;61711;52.266;10.542;2023-04-15T03:38:45;20.65;;;9.85;;
73474;SDS011;61711;52.266;10.542;2023-04-15T03:41:13;18.58;;;9.50;;
73474;SDS011;61711;52.266;10.542;2023-04-15T03:43:39;17.90;;;9.00;;
73474;SDS011;61711;52.266;10.542;2023-04-15T03:46:05;21.17;;;9.73;;
73474;SDS011;61711;52.266;10.542;2023-04-15T03:48:31;20.05;;;9.48;;
73474;SDS011;61711;52.266;10.542;2023-04-15T03:50:57;19.42;;;9.23;;
73474;SDS011;61711;52.266;10.542;2023-04-15T03:53:23;17.80;;;9.38;;
73474;SDS011;61711;52.266;10.542;2023-04-15T03:55:49;19.58;;;9.73;;
73474;SDS011;61711;52.266;10.542;2023-04-15T03:58:15;19.35;;;9.43;;
73474;SDS011;61711;52.266;10.542;2023-04-15T04:00:41;20.60;;;9.30;;
73474;SDS011;61711;52.266;10.542;2023-04-15T04:03:07;18.58;;;8.65;;
73474;SDS011;61711;52.266;10.542;2023-04-15T04:05:33;16.05;;;8.70;;
73474;SDS011;61711;52.266;10.542;2023-04-15T04:08:02;18.10;;;9.52;;
73474;SDS011;61711;52.266;10.542;2023-04-15T04:10:28;18.35;;;8.57;;
73474;SDS011;61711;52.266;10.542;2023-04-15T04:12:55;17.45;;;8.55;;
73474;SDS011;61711;52.266;10.542;2023-04-15T04:15:20;16.27;;;8.27;;
73474;SDS011;61711;52.266;10.542;2023-04-15T04:17:47;19.13;;;9.77;;
73474;SDS011;61711;52.266;10.542;2023-04-15T04:20:13;19.33;;;8.80;;
73474;SDS011;61711;52.266;10.542;2023-04-15T04:22:39;18.08;;;8.45;;
73474;SDS011;61711;52.266;10.542;2023-04-15T04:25:05;16.10;;;8.23;;
73474;SDS011;61711;52.266;10.542;2023-04-15T04:27:32;18.45;;;8.80;;
73474;SDS011;61711;52.266;10.542;2023-04-15T04:29:58;17.08;;;8.63;;
73474;SDS011;61711;52.266;10.542;2023-04-15T04:32:24;17.20;;;8.27;;
73474;SDS011;61711;52.266;10.542;2023-04-15T04:34:50;16.23;;;8.35;;
73474;SDS011;61711;52.266;10.542;2023-04-15T04:37:16;17.10;;;9.18;;
73474;SDS011;61711;52.266;10.542;2023-04-15T04:39:42;18.65;;;9.05;;
73474;SDS011;61711;52.266;10.542;2023-04-15T04:42:08;20.20;;;9.63;;
73474;SDS011;61711;52.266;10.542;2023-04-15T04:44:35;18.33;;;9.02;;
73474;SDS011;61711;52.266;10.542;2023-04-15T04:47:01;16.38;;;8.00;;
73474;SDS011;61711;52.266;10.542;2023-04-15T04:49:27;19.58;;;8.63;;
73474;SDS011;61711;52.266;10.542;2023-04-15T04:51:53;18.42;;;8.55;;
73474;SDS011;61711;52.266;10.542;2023-04-15T04:54:19;16.92;;;8.70;;
73474;SDS011;61711;52.266;10.542;2023-04-15T04:56:45;18.23;;;8.73;;
73474;SDS011;61711;52.266;10.542;2023-04-15T04:59:11;17.60;;;8.60;;
73474;SDS011;61711;52.266;10.542;2023-04-15T05:01:38;15.88;;;8.50;;
73474;SDS011;61711;52.266;10.542;2023-04-15T05:04:04;18.73;;;8.45;;
73474;SDS011;61711;52.266;10.542;2023-04-15T05:06:31;15.15;;;7.95;;
73474;SDS011;61711;52.266;10.542;2023-04-15T05:08:57;15.57;;;7.88;;
73474;SDS011;61711;52.266;10.542;2023-04-15T05:11:23;16.50;;;8.43;;
73474;SDS011;61711;52.266;10.542;2023-04-15T05:13:50;18.17;;;8.60;;
73474;SDS011;61711;52.266;10.542;2023-04-15T05:16:16;18.52;;;8.07;;
73474;SDS011;61711;52.266;10.542;2023-04-15T05:18:43;17.30;;;8.80;;
73474;SDS011;61711;52.266;10.542;2023-04-15T05:21:09;16.95;;;8.60;;
73474;SDS011;61711;52.266;10.542;2023-04-15T05:23:36;17.27;;;8.98;;
73474;SDS011;61711;52.266;10.542;2023-04-15T05:26:02;16.55;;;8.45;;
73474;SDS011;61711;52.266;10.542;2023-04-15T05:28:28;15.68;;;7.95;;
73474;SDS011;61711;52.266;10.542;2023-04-15T05:30:54;16.27;;;8.80;;
73474;SDS011;61711;52.266;10.542;2023-04-15T05:33:20;16.52;;;8.60;;
73474;SDS011;61711;52.266;10.542;2023-04-15T05:35:46;19.50;;;9.60;;
73474;SDS011;61711;52.266;10.542;2023-04-15T05:38:12;17.55;;;9.05;;
73474;SDS011;61711;52.266;10.542;2023-04-15T05:40:38;19.98;;;9.23;;
73474;SDS011;61711;52.266;10.542;2023-04-15T05:43:04;16.10;;;8.52;;
73474;SDS011;61711;52.266;10.542;2023-04-15T05:45:30;14.57;;;7.13;;
73474;SDS011;61711;52.266;10.542;2023-04-15T05:47:56;15.65;;;7.57;;
73474;SDS011;61711;52.266;10.542;2023-04-15T05:50:22;13.60;;;7.15;;
73474;SDS011;61711;52.266;10.542;2023-04-15T05:52:49;13.57;;;7.35;;
73474;SDS011;61711;52.266;10.542;2023-04-15T05:55:15;13.95;;;7.38;;
73474;SDS011;61711;52.266;10.542;2023-04-15T05:57:41;14.75;;;7.63;;
73474;SDS011;61711;52.266;10.542;2023-04-15T06:00:07;14.05;;;7.20;;
73474;SDS011;61711;52.266;10.542;2023-04-15T06:02:34;13.50;;;7.20;;
73474;SDS011;61711;52.266;10.542;2023-04-15T06:05:00;14.57;;;7.35;;
73474;SDS011;61711;52.266;10.542;2023-04-15T06:07:26;13.73;;;6.93;;
73474;SDS011;61711;52.266;10.542;2023-04-15T06:09:52;15.73;;;7.28;;
73474;SDS011;61711;52.266;10.542;2023-04-15T06:12:18;12.70;;;6.80;;
73474;SDS011;61711;52.266;10.542;2023-04-15T06:14:44;14.40;;;7.30;;
73474;SDS011;61711;52.266;10.542;2023-04-15T06:17:10;13.57;;;7.18;;
73474;SDS011;61711;52.266;10.542;2023-04-15T06:19:38;13.73;;;7.13;;
73474;SDS011;61711;52.266;10.542;2023-04-15T06:22:04;11.65;;;7.10;;
73474;SDS011;61711;52.266;10.542;2023-04-15T06:24:31;11.48;;;6.38;;
73474;SDS011;61711;52.266;10.542;2023-04-15T06:26:57;13.35;;;6.90;;
73474;SDS011;61711;52.266;10.542;2023-04-15T06:29:23;14.20;;;6.80;;
73474;SDS011;61711;52.266;10.542;2023-04-15T06:31:49;13.38;;;7.18;;
73474;SDS011;61711;52.266;10.542;2023-04-15T06:34:15;13.40;;;7.10;;
73474;SDS011;61711;52.266;10.542;2023-04-15T06:36:41;12.00;;;6.60;;
73474;SDS011;61711;52.266;10.542;2023-04-15T06:39:07;13.57;;;7.32;;
73474;SDS011;61711;52.266;10.542;2023-04-15T06:41:34;13.75;;;7.40;;
73474;SDS011;61711;52.266;10.542;2023-04-15T06:44:00;11.35;;;6.65;;
73474;SDS011;61711;52.266;10.542;2023-04-15T06:46:27;13.27;;;7.32;;
73474;SDS011;61711;52.266;10.542;2023-04-15T06:48:53;13.90;;;7.57;;
73474;SDS011;61711;52.266;10.542;2023-04-15T06:51:19;12.57;;;6.78;;
73474;SDS011;61711;52.266;10.542;2023-04-15T06:53:45;12.68;;;6.85;;
73474;SDS011;61711;52.266;10.542;2023-04-15T06:56:11;12.70;;;6.68;;
73474;SDS011;61711;52.266;10.542;2023-04-15T06:58:37;12.10;;;6.40;;
73474;SDS011;61711;52.266;10.542;2023-04-15T07:01:03;13.05;;;6.88;;
73474;SDS011;61711;52.266;10.542;2023-04-15T07:03:30;13.93;;;7.18;;
73474;SDS011;61711;52.266;10.542;2023-04-15T07:05:56;12.43;;;6.82;;
73474;SDS011;61711;52.266;10.542;2023-04-15T07:08:22;13.00;;;6.53;;
73474;SDS011;61711;52.266;10.542;2023-04-15T07:10:49;12.40;;;6.30;;
73474;SDS011;61711;52.266;10.542;2023-04-15T07:13:15;10.52;;;6.05;;
73474;SDS011;61711;52.266;10.542;2023-04-15T07:15:41;11.68;;;6.57;;
73474;SDS011;61711;52.266;10.542;2023-04-15T07:18:07;11.48;;;6.07;;
73474;SDS011;61711;52.266;10.542;2023-04-15T07:20:33;11.73;;;6.22;;
73474;SDS011;61711;52.266;10.542;2023-04-15T07:23:00;11.68;;;5.97;;
73474;SDS011;61711;52.266;10.542;2023-04-15T07:25:26;9.88;;;5.47;;
73474;SDS011;61711;52.266;10.542;2023-04-15T07:27:52;10.75;;;5.72;;
73474;SDS011;61711;52.266;10.542;2023-04-15T07:30:18;9.75;;;5.65;;
73474;SDS011;61711;52.266;10.542;2023-04-15T07:32:44;10.40;;;6.20;;
73474;SDS011;61711;52.266;10.542;2023-04-15T07:35:11;10.55;;;5.28;;
73474;SDS011;61711;52.266;10.542;2023-04-15T07:37:37;9.52;;;5.38;;
73474;SDS011;61711;52.266;10.542;2023-04-15T07:40:03;9.93;;;5.20;;
73474;SDS011;61711;52.266;10.542;2023-04-15T07:42:31;9.05;;;5.32;;
73474;SDS011;61711;52.266;10.542;2023-04-15T07:44:57;8.25;;;4.93;;
73474;SDS011;61711;52.266;10.542;2023-04-15T07:47:24;10.93;;;5.85;;
73474;SDS011;61711;52.266;10.542;2023-04-15T07:49:51;8.45;;;4.75;;
73474;SDS011;61711;52.266;10.542;2023-04-15T07:52:17;7.35;;;4.63;;
73474;SDS011;61711;52.266;10.542;2023-04-15T07:54:43;8.13;;;4.88;;
73474;SDS011;61711;52.266;10.542;2023-04-15T07:57:10;8.30;;;5.05;;
73474;SDS011;61711;52.266;10.542;2023-04-15T07:59:36;7.82;;;5.05;;
73474;SDS011;61711;52.266;10.542;2023-04-15T08:02:02;9.45;;;5.18;;
73474;SDS011;61711;52.266;10.542;2023-04-15T08:04:28;9.50;;;5.15;;
73474;SDS011;61711;52.266;10.542;2023-04-15T08:06:55;10.05;;;5.15;;
73474;SDS011;61711;52.266;10.542;2023-04-15T08:09:21;11.05;;;5.22;;
73474;SDS011;61711;52.266;10.542;2023-04-15T08:11:48;8.25;;;4.70;;
73474;SDS011;61711;52.266;10.542;2023-04-15T08:14:17;8.38;;;5.18;;
73474;SDS011;61711;52.266;10.542;2023-04-15T08:16:43;10.15;;;4.97;;
73474;SDS011;61711;52.266;10.542;2023-04-15T08:19:09;7.93;;;4.63;;
73474;SDS011;61711;52.266;10.542;2023-04-15T08:21:35;7.65;;;4.32;;
73474;SDS011;61711;52.266;10.542;2023-04-15T08:24:01;8.18;;;4.43;;
73474;SDS011;61711;52.266;10.542;2023-04-15T08:26:28;7.43;;;4.55;;
73474;SDS011;61711;52.266;10.542;2023-04-15T08:28:54;7.15;;;5.03;;
73474;SDS011;61711;52.266;10.542;2023-04-15T08:31:20;7.95;;;4.63;;
73474;SDS011;61711;52.266;10.542;2023-04-15T08:33:46;8.43;;;4.78;;
73474;SDS011;61711;52.266;10.542;2023-04-15T08:36:12;9.40;;;5.72;;
73474;SDS011;61711;52.266;10.542;2023-04-15T08:38:38;8.48;;;5.05;;
73474;SDS011;61711;52.266;10.542;2023-04-15T08:41:19;8.90;;;5.38;;
73474;SDS011;61711;52.266;10.542;2023-04-15T08:43:50;9.52;;;5.65;;
73474;SDS011;61711;52.266;10.542;2023-04-15T08:46:17;9.10;;;5.22;;
73474;SDS011;61711;52.266;10.542;2023-04-15T08:48:44;10.82;;;6.00;;
73474;SDS011;61711;52.266;10.542;2023-04-15T08:51:12;11.60;;;6.22;;
73474;SDS011;61711;52.266;10.542;2023-04-15T08:53:40;13.27;;;7.18;;
73474;SDS011;61711;52.266;10.542;2023-04-15T08:56:06;11.30;;;6.05;;
73474;SDS011;61711;52.266;10.542;2023-04-15T08:58:34;14.38;;;6.68;;
73474;SDS011;61711;52.266;10.542;2023-04-15T09:01:01;11.90;;;6.82;;
73474;SDS011;61711;52.266;10.542;2023-04-15T09:03:27;11.32;;;6.72;;
73474;SDS011;61711;52.266;10.542;2023-04-15T09:05:53;13.35;;;6.97;;
73474;SDS011;61711;52.266;10.542;2023-04-15T09:08:19;15.80;;;7.88;;
73474;SDS011;61711;52.266;10.542;2023-04-15T09:10:46;14.18;;;7.38;;
73474;SDS011;61711;52.266;10.542;2023-04-15T09:13:12;14.20;;;7.85;;
73474;SDS011;61711;52.266;10.542;2023-04-15T09:15:38;15.20;;;8.50;;
73474;SDS011;61711;52.266;10.542;2023-04-15T09:18:05;18.08;;;9.00;;
73474;SDS011;61711;52.266;10.542;2023-04-15T09:20:37;17.50;;;9.48;;
73474;SDS011;61711;52.266;10.542;2023-04-15T09:23:10;18.05;;;9.95;;
73474;SDS011;61711;52.266;10.542;2023-04-15T09:25:37;19.08;;;9.00;;
73474;SDS011;61711;52.266;10.542;2023-04-15T09:28:06;22.23;;;10.57;;
73474;SDS011;61711;52.266;10.542;2023-04-15T09:30:32;23.65;;;12.45;;
73474;SDS011;61711;52.266;10.542;2023-04-15T09:33:00;22.33;;;11.85;;
73474;SDS011;61711;52.266;10.542;2023-04-15T09:35:26;24.30;;;12.18;;
73474;SDS011;61711;52.266;10.542;2023-04-15T09:37:52;23.70;;;12.50;;
73474;SDS011;61711;52.266;10.542;2023-04-15T09:43:01;23.48;;;11.98;;
73474;SDS011;61711;52.266;10.542;2023-04-15T09:45:27;24.38;;;12.75;;
73474;SDS011;61711;52.266;10.542;2023-04-15T09:47:54;27.83;;;13.65;;
73474;SDS011;61711;52.266;10.542;2023-04-15T09:50:21;27.02;;;12.88;;
73474;SDS011;61711;52.266;10.542;2023-04-15T09:52:47;41.22;;;19.42;;
73474;SDS011;61711;52.266;10.542;2023-04-15T09:55:14;26.27;;;12.98;;
73474;SDS011;61711;52.266;10.542;2023-04-15T09:57:41;25.85;;;12.95;;
73474;SDS011;61711;52.266;10.542;2023-04-15T10:00:08;26.50;;;13.10;;
73474;SDS011;61711;52.266;10.542;2023-04-15T10:02:35;26.20;;;13.13;;
73474;SDS011;61711;52.266;10.542;2023-04-15T10:05:02;28.70;;;14.45;;
73474;SDS011;61711;52.266;10.542;2023-04-15T10:07:28;30.23;;;14.05;;
73474;SDS011;61711;52.266;10.542;2023-04-15T10:09:55;28.42;;;13.73;;
73474;SDS011;61711;52.266;10.542;2023-04-15T10:12:21;28.95;;;13.82;;
73474;SDS011;61711;52.266;10.542;2023-04-15T10:14:51;28.17;;;13.98;;
73474;SDS011;61711;52.266;10.542;2023-04-15T10:17:18;28.67;;;14.68;;
73474;SDS011;61711;52.266;10.542;2023-04-15T10:19:47;31.13;;;13.80;;
73474;SDS011;61711;52.266;10.542;2023-04-15T10:22:13;28.98;;;14.52;;
73474;SDS011;61711;52.266;10.542;2023-04-15T10:24:39;29.42;;;14.38;;
73474;SDS011;61711;52.266;10.542;2023-04-15T10:27:06;30.88;;;14.68;;
73474;SDS011;61711;52.266;10.542;2023-04-15T10:29:33;32.78;;;15.70;;
73474;SDS011;61711;52.266;10.542;2023-04-15T10:31:59;29.52;;;14.57;;
73474;SDS011;61711;52.266;10.542;2023-04-15T10:34:25;31.17;;;14.73;;
73474;SDS011;61711;52.266;10.542;2023-04-15T10:36:55;31.63;;;15.27;;
73474;SDS011;61711;52.266;10.542;2023-04-15T10:44:32;27.65;;;14.50;;
73474;SDS011;61711;52.266;10.542;2023-04-15T10:46:58;30.30;;;15.32;;
73474;SDS011;61711;52.266;10.542;2023-04-15T10:49:24;31.77;;;15.07;;
73474;SDS011;61711;52.266;10.542;2023-04-15T10:51:51;30.05;;;15.60;;
73474;SDS011;61711;52.266;10.542;2023-04-15T10:57:06;32.53;;;14.73;;
73474;SDS011;61711;52.266;10.542;2023-04-15T10:59:36;30.92;;;15.30;;
73474;SDS011;61711;52.266;10.542;2023-04-15T11:02:03;29.70;;;15.63;;
73474;SDS011;61711;52.266;10.542;2023-04-15T11:07:14;31.38;;;16.00;;
73474;SDS011;61711;52.266;10.542;2023-04-15T11:09:40;28.98;;;15.15;;
73474;SDS011;61711;52.266;10.542;2023-04-15T11:12:06;32.85;;;16.30;;
73474;SDS011;61711;52.266;10.542;2023-04-15T11:14:33;32.53;;;16.02;;
73474;SDS011;61711;52.266;10.542;2023-04-15T11:17:00;33.85;;;16.77;;
73474;SDS011;61711;52.266;10.542;2023-04-15T11:19:31;35.28;;;16.63;;
73474;SDS011;61711;52.266;10.542;2023-04-15T11:22:09;33.25;;;14.98;;
73474;SDS011;61711;52.266;10.542;2023-04-15T11:24:36;32.25;;;16.77;;
73474;SDS011;61711;52.266;10.542;2023-04-15T11:27:02;30.52;;;15.30;;
73474;SDS011;61711;52.266;10.542;2023-04-15T11:29:28;36.90;;;17.23;;
73474;SDS011;61711;52.266;10.542;2023-04-15T11:32:03;33.60;;;16.25;;
73474;SDS011;61711;52.266;10.542;2023-04-15T11:36:57;36.58;;;17.17;;
73474;SDS011;61711;52.266;10.542;2023-04-15T11:39:23;35.10;;;16.98;;
73474;SDS011;61711;52.266;10.542;2023-04-15T11:41:49;36.35;;;16.05;;
73474;SDS011;61711;52.266;10.542;2023-04-15T11:44:16;35.22;;;16.55;;
73474;SDS011;61711;52.266;10.542;2023-04-15T11:46:42;38.50;;;16.83;;
73474;SDS011;61711;52.266;10.542;2023-04-15T11:49:08;38.22;;;18.63;;
73474;SDS011;61711;52.266;10.542;2023-04-15T11:51:34;34.58;;;16.90;;
73474;SDS011;61711;52.266;10.542;2023-04-15T11:54:00;40.60;;;19.13;;
73474;SDS011;61711;52.266;10.542;2023-04-15T11:56:26;38.25;;;18.25;;
73474;SDS011;61711;52.266;10.542;2023-04-15T11:58:56;37.65;;;18.65;;
73474;SDS011;61711;52.266;10.542;2023-04-15T12:01:44;41.72;;;18.73;;
73474;SDS011;61711;52.266;10.542;2023-04-15T12:04:12;40.90;;;18.63;;
73474;SDS011;61711;52.266;10.542;2023-04-15T12:06:38;41.08;;;18.77;;
73474;SDS011;61711;52.266;10.542;2023-04-15T12:14:07;41.00;;;18.27;;
73474;SDS011;61711;52.266;10.542;2023-04-15T12:16:35;40.38;;;18.98;;
73474;SDS011;61711;52.266;10.542;2023-04-15T12:19:05;39.80;;;18.52;;
73474;SDS011;61711;52.266;10.542;2023-04-15T12:21:33;42.42;;;19.00;;
73474;SDS011;61711;52.266;10.542;2023-04-15T12:24:02;42.00;;;19.10;;
73474;SDS011;61711;52.266;10.542;2023-04-15T12:26:30;40.22;;;19.35;;
73474;SDS011;61711;52.266;10.542;2023-04-15T12:29:00;40.33;;;18.58;;
73474;SDS011;61711;52.266;10.542;2023-04-15T12:31:26;40.05;;;18.52;;
73474;SDS011;61711;52.266;10.542;2023-04-15T12:33:55;40.53;;;19.35;;
73474;SDS011;61711;52.266;10.542;2023-04-15T12:36:22;41.35;;;19.42;;
73474;SDS011;61711;52.266;10.542;2023-04-15T12:38:48;43.15;;;19.50;;
73474;SDS011;61711;52.266;10.542;2023-04-15T12:41:14;41.55;;;19.42;;
73474;SDS011;61711;52.266;10.542;2023-04-15T12:43:40;40.58;;;18.77;;
73474;SDS011;61711;52.266;10.542;2023-04-15T12:46:06;43.95;;;19.88;;
73474;SDS011;61711;52.266;10.542;2023-04-15T12:48:34;41.70;;;19.52;;
73474;SDS011;61711;52.266;10.542;2023-04-15T12:51:00;42.78;;;19.77;;
73474;SDS011;61711;52.266;10.542;2023-04-15T12:53:26;41.47;;;19.85;;
73474;SDS011;61711;52.266;10.542;2023-04-15T12:55:52;42.55;;;19.10;;
73474;SDS011;61711;52.266;10.542;2023-04-15T12:58:19;42.35;;;19.15;;
73474;SDS011;61711;52.266;10.542;2023-04-15T13:00:46;39.17;;;18.48;;
73474;SDS011;61711;52.266;10.542;2023-04-15T13:03:13;40.00;;;19.60;;
73474;SDS011;61711;52.266;10.542;2023-04-15T13:05:39;38.85;;;18.27;;
73474;SDS011;61711;52.266;10.542;2023-04-15T13:08:05;41.50;;;19.35;;
73474;SDS011;61711;52.266;10.542;2023-04-15T13:10:32;41.10;;;19.92;;
73474;SDS011;61711;52.266;10.542;2023-04-15T13:13:00;40.78;;;19.85;;
73474;SDS011;61711;52.266;10.542;2023-04-15T13:15:27;42.33;;;19.23;;
73474;SDS011;61711;52.266;10.542;2023-04-15T13:17:53;47.15;;;20.05;;
73474;SDS011;61711;52.266;10.542;2023-04-15T13:20:19;42.85;;;20.48;;
73474;SDS011;61711;52.266;10.542;2023-04-15T13:22:45;45.70;;;20.52;;
73474;SDS011;61711;52.266;10.542;2023-04-15T13:25:11;40.65;;;19.88;;
73474;SDS011;61711;52.266;10.542;2023-04-15T13:27:37;44.15;;;20.92;;
73474;SDS011;61711;52.266;10.542;2023-04-15T13:30:04;44.38;;;19.92;;
73474;SDS011;61711;52.266;10.542;2023-04-15T13:32:30;42.55;;;20.50;;
73474;SDS011;61711;52.266;10.542;2023-04-15T13:34:56;39.10;;;19.52;;
73474;SDS011;61711;52.266;10.542;2023-04-15T13:37:25;41.47;;;20.23;;
73474;SDS011;61711;52.266;10.542;2023-04-15T13:39:52;37.80;;;19.48;;
73474;SDS011;61711;52.266;10.542;2023-04-15T13:42:18;39.88;;;20.27;;
73474;SDS011;61711;52.266;10.542;2023-04-15T13:44:44;42.92;;;20.75;;
73474;SDS011;61711;52.266;10.542;2023-04-15T13:47:10;38.67;;;19.48;;
73474;SDS011;61711;52.266;10.542;2023-04-15T13:49:37;40.90;;;19.35;;
73474;SDS011;61711;52.266;10.542;2023-04-15T13:52:03;38.63;;;19.85;;
73474;SDS011;61711;52.266;10.542;2023-04-15T13:54:29;39.67;;;19.63;;
73474;SDS011;61711;52.266;10.542;2023-04-15T13:56:55;39.75;;;19.70;;
73474;SDS011;61711;52.266;10.542;2023-04-15T13:59:22;40.30;;;20.27;;
73474;SDS011;61711;52.266;10.542;2023-04-15T14:01:48;40.28;;;20.92;;
73474;SDS011;61711;52.266;10.542;2023-04-15T14:04:14;42.35;;;20.45;;
73474;SDS011;61711;52.266;10.542;2023-04-15T14:06:40;39.00;;;20.13;;
73474;SDS011;61711;52.266;10.542;2023-04-15T14:09:06;37.88;;;19.60;;
73474;SDS011;61711;52.266;10.542;2023-04-15T14:11:32;42.63;;;20.38;;
73474;SDS011;61711;52.266;10.542;2023-04-15T14:14:00;38.97;;;20.13;;
73474;SDS011;61711;52.266;10.542;2023-04-15T14:16:26;40.95;;;20.30;;
73474;SDS011;61711;52.266;10.542;2023-04-15T14:18:52;38.92;;;20.52;;
73474;SDS011;61711;52.266;10.542;2023-04-15T14:21:18;42.17;;;21.17;;
73474;SDS011;61711;52.266;10.542;2023-04-15T14:23:45;39.60;;;21.45;;
73474;SDS011;61711;52.266;10.542;2023-04-15T14:26:11;38.95;;;20.50;;
73474;SDS011;61711;52.266;10.542;2023-04-15T14:28:37;39.03;;;20.75;;
73474;SDS011;61711;52.266;10.542;2023-04-15T14:31:03;38.28;;;19.95;;
73474;SDS011;61711;52.266;10.542;2023-04-15T14:33:30;38.53;;;20.15;;
73474;SDS011;61711;52.266;10.542;2023-04-15T14:35:56;38.70;;;19.88;;